Weining, China
Current Conditions -  °F | °C
As of 9:00 AM on Tuesday 27 Jan 2015 (Local Time) from ZUGY Reporting Station
Broken Clouds Broken Clouds  
Wind Chill: 52°   Ceiling: 1800
Heat Index: 52°   Visibility: 4mi
Dew Point: 50°   Wind: 2mph
Humidity: 94%   Direction: 10°N
Pressure: 30.03"   Gusts: NA
Location:  26.87°N, 104.28°E
Report Text: ZUGY 270100Z 01001MPS 6000 BKN018 BKN040 11/10 Q1017 NOSIG
Loading
Personal Weather Stations






























Interactive Weather Map New forecast layout! Learn more

10-Day Weather Forecast

Advertisements
Track Severe Weather on mobile